x

Conneaut Breakwater Light, Oh (cblo1) Weather Station

1:34pm - Mon 23rd Jan 2017 All times are CST. -6 hours from GMT.

  • Wind
    16mph, 21mph gusts
  • Air Temp 37°f
  • Sea Pressure 1002.7mb
  • Conneaut Breakwater Light, Oh
  • Conneaut Breakwater Light, Oh

More Historic Weather Station data

Upgrade to MSW Pro to gain access to the past 30 days of data for over 8000 Wavebouys and Weather Stations around the globe.

Join Pro

Comparision Forecast

View Surf forecast
   
Mon 01/23 1:34pm 16 21 mph 1002.7mb 37f
1:00pm 17 18 mph 1002.4mb 37f
12:50pm 17 20 mph 1002.7mb 37f
12:40pm 17 21 mph 1002.7mb 37f
12:33pm 17 23 mph 1002.7mb 37f
12:30pm 17 20 mph 1002.7mb 37f
12:20pm 17 21 mph 1002.7mb 37f
12:10pm 20 21 mph 1002.7mb 37f
Sat 01/21 6:00am 13 15 mph 1007.8mb 49f
5:50am 13 15 mph 1007.8mb 49f
5:40am 13 15 mph 1008.1mb 49f
5:30am 11 15 mph 1008.1mb 49f
5:20am 10 15 mph 1008.1mb 49f
5:10am 13 15 mph 1008.1mb 48f
5:00am 8 9 mph 1008.1mb 47f
4:50am 5 7 mph 1008.1mb 47f
4:40am 3 6 mph 1008.1mb 48f
4:30am 3 6 mph 1008.1mb 47f
4:20am 5 6 mph 1008.1mb 46f
4:10am 5
mph
1008.1mb 47f
4:00am 5 6 mph 1008.1mb 47f
3:50am 2 5 mph 1008.5mb 46f
3:40am 5 7 mph 1008.5mb 47f
3:30am 5 7 mph 1008.5mb 47f
3:20am 5 6 mph 1008.8mb 47f
3:10am 3 5 mph 1008.8mb 47f
3:00am 5
mph
1008.8mb 47f
2:50am 3 5 mph 1009.1mb 48f
2:40am 2 5 mph 1009.1mb 48f
2:30am 6 7 mph 1009.5mb 47f
2:20am 5 7 mph 1009.8mb 47f
2:10am 6 7 mph 1009.5mb 46f
2:00am 5 6 mph 1009.5mb 45f
1:50am 5 6 mph 1009.5mb 45f
1:40am 6 7 mph 1009.5mb 45f
1:30am 6
mph
1009.5mb 45f
1:20am 5
mph
1009.1mb 44f
1:10am 5 6 mph 1009.1mb 46f
1:00am 3
mph
1009.1mb 46f
12:50am  -  2 mph 1009.1mb 46f
12:40am  -  3 mph 1009.5mb 46f
12:30am 2 3 mph 1009.1mb 46f
12:20am 2 5 mph 1009.1mb 47f
12:10am 5 6 mph 1009.1mb 47f
12:00am 5 6 mph 1009.1mb 47f
Fri 01/20 11:50pm 5
mph
1009.5mb 46f
11:40pm 3
mph
1009.5mb 46f
11:30pm 2 3 mph 1009.1mb 46f
11:20pm 3 5 mph 1009.1mb 46f
11:10pm 3 5 mph 1009.5mb 46f
10:50pm 5 6 mph 1009.1mb 46f
10:40pm 5 6 mph 1009.1mb 45f
10:30pm 5 6 mph 1009.1mb 42f
10:20pm 3 5 mph 1009.1mb 41f
10:10pm 5 6 mph 1009.1mb 41f
10:00pm 6 7 mph 1009.1mb 40f
9:50pm 8 9 mph 1009.1mb 42f
9:40pm 7 8 mph 1008.8mb 41f
9:30pm 7 8 mph 1008.8mb 41f
9:20pm 7 8 mph 1008.8mb 41f
9:10pm 7 8 mph 1008.8mb 41f
9:00pm 7 9 mph 1008.5mb 40f
8:50pm 9 11 mph 1008.5mb 40f
8:40pm 10 11 mph 1008.5mb 41f
8:30pm 10 13 mph 1008.5mb 40f
8:20pm 9 13 mph 1008.5mb 41f
8:10pm 11 14 mph 1008.1mb 40f
8:00pm 11 14 mph 1008.1mb 40f
7:50pm 11 14 mph 1008.1mb 40f
7:40pm 11 13 mph 1008.1mb 41f
7:30pm 10 13 mph 1007.8mb 41f
7:20pm 10 14 mph 1007.8mb 42f
7:10pm 11 14 mph 1008.1mb 43f
7:00pm 11 14 mph 1007.8mb 44f
6:50pm 13 15 mph 1007.8mb 44f
6:40pm 13 14 mph 1007.8mb 44f
6:30pm 11 14 mph 1007.5mb 43f
6:21pm 11 14 mph 1007.5mb 41f
6:20pm 11 14 mph 1007.5mb 41f
6:10pm 10 11 mph 1007.5mb 40f
6:00pm 9 11 mph 1007.5mb 40f
5:50pm 10 13 mph 1007.1mb 43f
5:40pm 10 13 mph 1007.1mb 42f
5:30pm 11
mph
1006.8mb 45f
5:21pm 9 11 mph 1006.8mb 47f
5:20pm 9 10 mph 1006.8mb 47f
5:10pm 8 11 mph 1006.8mb 47f
5:00pm 8 10 mph 1006.8mb 47f
4:50pm 9 11 mph 1006.4mb 50f
4:40pm 9 10 mph 1006.4mb 50f
4:30pm 9 10 mph 1006.1mb 50f
4:20pm 9 13 mph 1006.1mb 50f
4:10pm 9 11 mph 1005.8mb 50f
4:00pm 10 11 mph 1005.8mb 50f
3:50pm 11 13 mph 1005.8mb 50f
3:40pm 10 11 mph 1005.8mb 50f
3:30pm 10 13 mph 1005.8mb 49f
3:20pm 11 13 mph 1005.4mb 49f
3:10pm 8 10 mph 1005.4mb 49f
3:00pm 8 10 mph 1005.4mb 48f
2:50pm 7 9 mph 1005.4mb 48f
2:40pm 9 11 mph 1005.4mb 48f
2:30pm 9 11 mph 1005.4mb 48f
2:20pm 10 16 mph 1005.1mb 48f
2:10pm 13 16 mph 1005.1mb 48f
2:00pm 13 16 mph 1005.1mb 48f
1:50pm 13 16 mph 1005.1mb 48f
1:40pm 14 15 mph 1005.1mb 47f
1:30pm 13 16 mph 1004.7mb 47f
1:20pm 13 15 mph 1004.7mb 47f
1:10pm 10 15 mph 1004.7mb 47f
1:00pm 10 16 mph 1004.7mb 46f
12:50pm 11 14 mph 1004.7mb 46f
12:40pm 10 13 mph 1004.7mb 46f
12:30pm 3 8 mph 1004.7mb 43f
12:20pm 2 3 mph 1005.1mb 42f
12:10pm 3 5 mph 1005.1mb 40f
12:00pm 1 2 mph 1005.1mb 41f
11:50am 1 3 mph 1005.1mb 42f
11:40am 2 6 mph 1005.1mb 42f
11:30am 3 5 mph 1005.1mb 42f
11:20am 2 5 mph 1005.1mb 41f
11:10am 3 6 mph 1005.1mb 41f
11:00am 2 3 mph 1005.1mb 41f
10:50am 1 7 mph 1005.4mb 42f
10:40am 2 7 mph 1005.4mb 41f
10:30am 5 10 mph 1005.4mb 41f
10:20am 7 9 mph 1005.8mb 40f
10:10am 8 9 mph 1005.8mb 39f
10:00am 8 10 mph 1006.1mb 38f
9:50am 9 10 mph 1006.1mb 38f
9:40am 9 11 mph 1006.1mb 37f
9:30am 10
mph
1006.1mb 38f
9:20am 9 10 mph 1006.4mb 37f
9:10am 8 11 mph 1006.4mb 38f
9:00am 9 10 mph 1006.4mb 37f
8:50am 9 10 mph 1006.4mb 37f
8:40am 8 11 mph 1006.8mb 37f
8:30am 8 9 mph 1006.8mb 37f
8:20am 8 9 mph 1007.1mb 37f
8:10am 9
mph
1007.1mb 36f
8:00am 8
mph
1007.1mb 36f